Flight Track Log - Related Links

Times and Time Zones

All times are in EDT time to prevent confusion due to time zone crossing. See the SWA3408 flight status page for this flight to view local times or setup timezone preferences in your user account.

Time Position Orientation Groundspeed Altitude Reporting Facility
EDT Latitude Longitude Course Direction KTS MPH feet Rate Location/Type
Tue 07:36:40 AM 41.7667 -87.7667 90° East 135 155 2,200  Level Chicago TRACON
Tue 07:37:40 AM 41.7667 -87.7000 90° East 214 246 3,400 1,400 Climbing Chicago TRACON
Tue 07:38:40 AM 41.7667 -87.6000 90° East 294 338 5,000 1,026 Climbing Chicago TRACON
Tue 07:39:37 AM 41.7775 -87.4989 82° East 291 335 5,400 1,714 Climbing Chicago Center
Tue 07:40:39 AM 41.7817 -87.3881 87° East 297 342 8,400 4,000 Climbing Chicago Center
Tue 07:41:40 AM 41.7742 -87.2711 95° East 312 359 13,600 3,220 Climbing Chicago Center
Tue 07:42:42 AM 41.7661 -87.1503 95° East 323 372 15,000 780 Climbing Chicago Center
Tue 07:43:43 AM 41.7606 -87.0211 93° East 343 395 15,200 2,000 Climbing Chicago Center
Tue 07:44:45 AM 41.7639 -86.8583 88° East 364 419 19,100 3,707 Climbing Chicago Center
Tue 07:45:46 AM 41.7661 -86.7153 89° East 382 440 22,800 2,976 Climbing Chicago Center
Tue 07:46:48 AM 41.7669 -86.5803 89° East 405 466 25,200 2,226 Climbing Chicago Center
Tue 07:47:50 AM 41.7681 -86.4136 89° East 444 511 27,400 2,244 Climbing Chicago Center
Tue 07:48:51 AM 41.7614 -86.1967 92° East 487 560 29,800 2,244 Climbing Chicago Center
Tue 07:49:53 AM 41.7486 -86.0022 95° East 518 596 32,000 2,244 Climbing Chicago Center
Tue 07:50:54 AM 41.7364 -85.8036 95° East 534 615 34,400 1,463 Climbing Chicago Center
Tue 07:51:56 AM 41.7236 -85.6053 95° East 532 612 35,000 1,317 Climbing Chicago Center
Tue 07:52:57 AM 41.7100 -85.4336 96° East 510 587 37,100 2,293 Climbing Chicago Center
Tue 07:53:59 AM 41.6975 -85.2161 94° East 511 588 39,700 1,902 Climbing Chicago Center
Tue 07:55:00 AM 41.6847 -85.0322 95° East 503 579 41,000 634 Climbing Chicago Center
Tue 07:56:02 AM 41.6711 -84.8539 96° East 487 560 41,000  Level Chicago Center
Tue 07:57:03 AM 41.6589 -84.6753 95° East 483 556 41,000  Level Chicago Center
Tue 07:58:14 AM 41.5869 -84.4869 117° Southeast 464 534 41,000  Level Cleveland Center
Tue 07:59:06 AM 41.5347 -84.3619 119° Southeast 477 549 41,000  Level Chicago Center
Tue 08:00:08 AM 41.4725 -84.2025 117° Southeast 486 559 41,000  Level Chicago Center
Tue 08:01:10 AM 41.3917 -84.0186 120° Southeast 481 554 41,000  Level Chicago Center
Tue 08:02:11 AM 41.3286 -83.8617 118° Southeast 480 552 41,000  Level Chicago Center
Tue 08:03:13 AM 41.2625 -83.7061 119° Southeast 483 556 41,000  Level Chicago Center
Tue 08:04:14 AM 41.1900 -83.5356 119° Southeast 482 555 41,000  Level Cleveland Center
Tue 08:05:14 AM 41.1253 -83.3811 119° Southeast 482 555 41,000 -50 Level Cleveland Center
Tue 08:06:14 AM 41.0722 -83.2411 117° Southeast 476 548 40,900  Descending Cleveland Center
Tue 08:07:14 AM 40.9967 -83.0758 121° Southeast 476 548 41,000 50 Climbing Cleveland Center
Tue 08:08:14 AM 40.9311 -82.9247 120° Southeast 476 548 41,000  Level Cleveland Center
Tue 08:09:46 AM 40.8350 -82.6897 118° Southeast 471 542 41,000  Level Indianapolis Center
Tue 08:10:48 AM 40.7692 -82.5397 120° Southeast 471 542 41,000  Level Indianapolis Center
Tue 08:11:50 AM 40.7039 -82.3908 120° Southeast 469 540 41,000 -49 Level Indianapolis Center
Tue 08:12:51 AM 40.6381 -82.2406 120° Southeast 473 544 40,900  Descending Indianapolis Center
Tue 08:13:53 AM 40.5731 -82.0903 120° Southeast 471 542 41,000 48 Climbing Indianapolis Center
Tue 08:14:55 AM 40.5069 -81.9400 120° Southeast 472 543 41,000  Level Indianapolis Center
Tue 08:15:56 AM 40.4397 -81.7906 121° Southeast 472 543 41,000  Level Indianapolis Center
Tue 08:16:58 AM 40.3733 -81.6422 120° Southeast 470 541 41,000  Level Indianapolis Center
Tue 08:17:59 AM 40.2958 -81.4675 120° Southeast 472 543 41,000  Level Indianapolis Center
Tue 08:19:01 AM 40.2292 -81.3200 121° Southeast 470 541 41,000  Level Indianapolis Center
Tue 08:20:03 AM 40.1628 -81.1714 120° Southeast 470 541 41,000 -341 Level Indianapolis Center
Tue 08:21:04 AM 40.0967 -81.0261 121° Southeast 463 533 40,300 -857 Descending Indianapolis Center
Tue 08:22:02 AM 40.0333 -80.8786 119° Southeast 461 531 39,300 -661 Descending Cleveland Center
Tue 08:23:02 AM 39.9669 -80.7375 122° Southeast 461 531 39,000 -150 Descending Cleveland Center
Tue 08:24:02 AM 39.9025 -80.5939 120° Southeast 461 531 39,000  Level Cleveland Center
Tue 08:25:02 AM 39.8336 -80.4478 122° Southeast 461 531 39,000  Level Cleveland Center
Tue 08:26:02 AM 39.7686 -80.3050 121° Southeast 461 531 39,000 -150 Level Cleveland Center
Tue 08:27:02 AM 39.7017 -80.1594 121° Southeast 461 531 38,700 -1,400 Descending Cleveland Center
Tue 08:28:02 AM 39.6322 -80.0169 122° Southeast 466 536 36,200 -2,700 Descending Cleveland Center
Tue 08:29:02 AM 39.5667 -79.8747 121° Southeast 466 536 33,300 -2,821 Descending Cleveland Center
Tue 08:30:33 AM 39.5222 -79.6542 105° East 413 475 29,100 -2,503 Descending Washington Center
Tue 08:31:33 AM 39.4906 -79.4800 103° East 445 512 27,000 -1,050 Descending Washington Center
Tue 08:32:33 AM 39.4639 -79.3308 103° East 445 512 27,000 -500 Level Washington Center
Tue 08:33:33 AM 39.4389 -79.1925 103° East 440 506 26,000 -1,400 Descending Washington Center
Tue 08:34:33 AM 39.4119 -79.0489 104° East 425 489 24,200 -2,150 Descending Washington Center
Tue 08:35:33 AM 39.3867 -78.9081 103° East 409 471 21,700 -2,500 Descending Washington Center
Tue 08:36:33 AM 39.3633 -78.7753 103° East 387 445 19,200 -1,850 Descending Washington Center
Tue 08:37:33 AM 39.3375 -78.6453 104° East 380 437 18,000 -1,900 Descending Washington Center
Tue 08:38:33 AM 39.3156 -78.5183 103° East 370 426 15,400 -2,500 Descending Washington Center
Tue 08:39:33 AM 39.2914 -78.3914 104° East 370 426 13,000 -2,100 Descending Washington Center
Tue 08:40:33 AM 39.2439 -78.2875 121° Southeast 351 404 11,200 -1,050 Descending Washington Center
Tue 08:41:33 AM 39.1978 -78.1975 123° Southeast 329 379 10,900 -950 Descending Washington Center
Tue 08:42:33 AM 39.1517 -78.1131 125° Southeast 309 356 9,300 -1,650 Descending Washington Center
Tue 08:43:33 AM 39.1075 -78.0283 124° Southeast 294 338 7,600 -1,150 Descending Washington Center
Tue 08:44:33 AM 39.0633 -77.9469 125° Southeast 289 333 7,000 -300 Descending Washington Center
Tue 08:45:33 AM 39.0172 -77.8544 123° Southeast 289 333 7,000  Level Washington Center
Tue 08:46:33 AM 38.9750 -77.7758 125° Southeast 284 327 7,000 -368 Level Washington Center
Tue 08:48:16 AM 38.9333 -77.6167 109° East 280 322 6,000 -368 Descending Potomac TRACON
Tue 08:49:16 AM 38.8667 -77.5833 159° South 252 290 6,000 -421 Level Potomac TRACON
Tue 08:50:10 AM 38.8000 -77.5667 169° South 221 254 5,200 -1,053 Descending Potomac TRACON
Tue 08:51:10 AM 38.7667 -77.5167 131° Southeast 224 258 4,000 -1,105 Descending Potomac TRACON
Tue 08:52:04 AM 38.8000 -77.4667 49° Northeast 178 205 3,100 -887 Descending Potomac TRACON
Tue 08:53:05 AM 38.8333 -77.4667 360° North 168 193 2,300 -750 Descending Potomac TRACON
Tue 08:54:04 AM 38.8833 -77.4667 360° North 132 152 1,600 -655 Descending Potomac TRACON
Tue 08:55:04 AM 38.9167 -77.4667 360° North 117 135 1,000 -600 Descending Potomac TRACON
Tue 08:57:00 AM 38.9333 -77.4500 165° South  Level FlightAware Approximate
Tue 09:04:00 AM 38.9474 -77.4599 165° South  Level Estimated

Login

Don't have an account? Register now (free) for customized features, flight alerts, and more!